sensor_id;sensor_type;location;lat;lon;timestamp;P1;durP1;ratioP1;P2;durP2;ratioP2
66559;SDS011;53413;49.878;8.142;2022-10-16T00:01:42;3.80;;;1.48;;
66559;SDS011;53413;49.878;8.142;2022-10-16T00:04:08;3.87;;;1.50;;
66559;SDS011;53413;49.878;8.142;2022-10-16T00:06:33;4.47;;;1.50;;
66559;SDS011;53413;49.878;8.142;2022-10-16T00:08:59;3.97;;;1.40;;
66559;SDS011;53413;49.878;8.142;2022-10-16T00:11:25;4.33;;;1.63;;
66559;SDS011;53413;49.878;8.142;2022-10-16T00:13:57;3.92;;;1.60;;
66559;SDS011;53413;49.878;8.142;2022-10-16T00:16:24;4.45;;;1.63;;
66559;SDS011;53413;49.878;8.142;2022-10-16T00:18:50;5.13;;;1.80;;
66559;SDS011;53413;49.878;8.142;2022-10-16T00:21:16;4.03;;;1.60;;
66559;SDS011;53413;49.878;8.142;2022-10-16T00:23:43;4.25;;;1.80;;
66559;SDS011;53413;49.878;8.142;2022-10-16T00:26:10;4.70;;;1.80;;
66559;SDS011;53413;49.878;8.142;2022-10-16T00:28:38;4.13;;;1.77;;
66559;SDS011;53413;49.878;8.142;2022-10-16T00:31:05;4.30;;;1.70;;
66559;SDS011;53413;49.878;8.142;2022-10-16T00:33:31;4.37;;;1.50;;
66559;SDS011;53413;49.878;8.142;2022-10-16T00:36:01;4.03;;;1.73;;
66559;SDS011;53413;49.878;8.142;2022-10-16T00:38:28;4.82;;;1.60;;
66559;SDS011;53413;49.878;8.142;2022-10-16T00:40:53;3.50;;;1.45;;
66559;SDS011;53413;49.878;8.142;2022-10-16T00:43:39;4.18;;;1.52;;
66559;SDS011;53413;49.878;8.142;2022-10-16T00:46:07;4.73;;;1.50;;
66559;SDS011;53413;49.878;8.142;2022-10-16T00:48:43;3.95;;;1.70;;
66559;SDS011;53413;49.878;8.142;2022-10-16T00:51:13;4.13;;;1.50;;
66559;SDS011;53413;49.878;8.142;2022-10-16T00:53:39;3.97;;;1.60;;
66559;SDS011;53413;49.878;8.142;2022-10-16T00:56:05;4.40;;;1.67;;
66559;SDS011;53413;49.878;8.142;2022-10-16T00:58:31;3.83;;;1.60;;
66559;SDS011;53413;49.878;8.142;2022-10-16T01:00:56;4.00;;;1.75;;
66559;SDS011;53413;49.878;8.142;2022-10-16T01:03:32;4.47;;;1.80;;
66559;SDS011;53413;49.878;8.142;2022-10-16T01:06:12;4.57;;;1.90;;
66559;SDS011;53413;49.878;8.142;2022-10-16T01:09:05;5.53;;;2.00;;
66559;SDS011;53413;49.878;8.142;2022-10-16T01:14:18;5.03;;;1.90;;
66559;SDS011;53413;49.878;8.142;2022-10-16T01:16:55;4.15;;;1.80;;
66559;SDS011;53413;49.878;8.142;2022-10-16T01:22:16;4.45;;;1.85;;
66559;SDS011;53413;49.878;8.142;2022-10-16T01:24:46;4.20;;;1.90;;
66559;SDS011;53413;49.878;8.142;2022-10-16T01:29:48;5.00;;;2.13;;
66559;SDS011;53413;49.878;8.142;2022-10-16T01:32:33;5.72;;;2.20;;
66559;SDS011;53413;49.878;8.142;2022-10-16T01:35:32;4.60;;;1.90;;
66559;SDS011;53413;49.878;8.142;2022-10-16T01:40:33;5.28;;;2.40;;
66559;SDS011;53413;49.878;8.142;2022-10-16T01:43:11;5.27;;;2.30;;
66559;SDS011;53413;49.878;8.142;2022-10-16T01:45:40;5.28;;;2.33;;
66559;SDS011;53413;49.878;8.142;2022-10-16T01:48:06;4.50;;;2.28;;
66559;SDS011;53413;49.878;8.142;2022-10-16T01:50:35;6.03;;;2.55;;
66559;SDS011;53413;49.878;8.142;2022-10-16T01:53:05;6.25;;;2.33;;
66559;SDS011;53413;49.878;8.142;2022-10-16T01:55:35;5.40;;;2.45;;
66559;SDS011;53413;49.878;8.142;2022-10-16T01:58:05;5.47;;;2.40;;
66559;SDS011;53413;49.878;8.142;2022-10-16T02:00:34;4.93;;;2.47;;
66559;SDS011;53413;49.878;8.142;2022-10-16T02:03:03;5.10;;;2.40;;
66559;SDS011;53413;49.878;8.142;2022-10-16T02:05:41;6.63;;;2.47;;
66559;SDS011;53413;49.878;8.142;2022-10-16T02:08:10;5.43;;;2.50;;
66559;SDS011;53413;49.878;8.142;2022-10-16T02:10:36;5.35;;;2.50;;
66559;SDS011;53413;49.878;8.142;2022-10-16T02:15:46;5.10;;;2.58;;
66559;SDS011;53413;49.878;8.142;2022-10-16T02:18:12;5.77;;;2.10;;
66559;SDS011;53413;49.878;8.142;2022-10-16T02:20:41;4.60;;;2.25;;
66559;SDS011;53413;49.878;8.142;2022-10-16T02:23:14;4.90;;;2.30;;
66559;SDS011;53413;49.878;8.142;2022-10-16T02:25:59;5.60;;;2.33;;
66559;SDS011;53413;49.878;8.142;2022-10-16T02:28:30;5.28;;;2.40;;
66559;SDS011;53413;49.878;8.142;2022-10-16T02:31:11;5.00;;;2.67;;
66559;SDS011;53413;49.878;8.142;2022-10-16T02:33:40;6.22;;;2.72;;
66559;SDS011;53413;49.878;8.142;2022-10-16T02:36:08;5.20;;;2.58;;
66559;SDS011;53413;49.878;8.142;2022-10-16T02:38:34;4.90;;;2.37;;
66559;SDS011;53413;49.878;8.142;2022-10-16T02:41:01;5.68;;;2.40;;
66559;SDS011;53413;49.878;8.142;2022-10-16T02:43:27;4.65;;;2.30;;
66559;SDS011;53413;49.878;8.142;2022-10-16T02:45:52;4.50;;;2.20;;
66559;SDS011;53413;49.878;8.142;2022-10-16T02:48:18;4.93;;;2.20;;
66559;SDS011;53413;49.878;8.142;2022-10-16T02:50:43;5.53;;;2.57;;
66559;SDS011;53413;49.878;8.142;2022-10-16T02:53:08;5.30;;;2.60;;
66559;SDS011;53413;49.878;8.142;2022-10-16T02:55:34;5.95;;;2.33;;
66559;SDS011;53413;49.878;8.142;2022-10-16T02:57:59;4.85;;;2.40;;
66559;SDS011;53413;49.878;8.142;2022-10-16T03:00:24;4.50;;;2.40;;
66559;SDS011;53413;49.878;8.142;2022-10-16T03:02:50;5.50;;;2.60;;
66559;SDS011;53413;49.878;8.142;2022-10-16T03:05:15;4.60;;;2.60;;
66559;SDS011;53413;49.878;8.142;2022-10-16T03:07:41;5.93;;;2.80;;
66559;SDS011;53413;49.878;8.142;2022-10-16T03:10:06;5.60;;;3.00;;
66559;SDS011;53413;49.878;8.142;2022-10-16T03:12:32;5.63;;;2.80;;
66559;SDS011;53413;49.878;8.142;2022-10-16T03:14:58;4.87;;;2.63;;
66559;SDS011;53413;49.878;8.142;2022-10-16T03:17:23;5.73;;;2.47;;
66559;SDS011;53413;49.878;8.142;2022-10-16T03:19:49;6.55;;;2.65;;
66559;SDS011;53413;49.878;8.142;2022-10-16T03:22:15;7.00;;;2.60;;
66559;SDS011;53413;49.878;8.142;2022-10-16T03:24:40;4.30;;;2.40;;
66559;SDS011;53413;49.878;8.142;2022-10-16T03:27:05;5.28;;;2.58;;
66559;SDS011;53413;49.878;8.142;2022-10-16T03:29:31;5.72;;;2.50;;
66559;SDS011;53413;49.878;8.142;2022-10-16T03:31:57;5.55;;;2.50;;
66559;SDS011;53413;49.878;8.142;2022-10-16T03:34:23;4.85;;;2.30;;
66559;SDS011;53413;49.878;8.142;2022-10-16T03:36:49;5.70;;;2.60;;
66559;SDS011;53413;49.878;8.142;2022-10-16T03:39:14;4.97;;;2.40;;
66559;SDS011;53413;49.878;8.142;2022-10-16T03:41:40;4.67;;;2.27;;
66559;SDS011;53413;49.878;8.142;2022-10-16T03:44:05;4.57;;;2.30;;
66559;SDS011;53413;49.878;8.142;2022-10-16T03:46:31;5.00;;;2.33;;
66559;SDS011;53413;49.878;8.142;2022-10-16T03:48:56;4.88;;;2.50;;
66559;SDS011;53413;49.878;8.142;2022-10-16T03:51:21;6.60;;;2.50;;
66559;SDS011;53413;49.878;8.142;2022-10-16T03:53:47;4.80;;;2.23;;
66559;SDS011;53413;49.878;8.142;2022-10-16T03:56:12;6.60;;;2.20;;
66559;SDS011;53413;49.878;8.142;2022-10-16T03:58:38;4.75;;;2.13;;
66559;SDS011;53413;49.878;8.142;2022-10-16T04:01:03;5.90;;;2.30;;
66559;SDS011;53413;49.878;8.142;2022-10-16T04:03:29;4.70;;;2.03;;
66559;SDS011;53413;49.878;8.142;2022-10-16T04:05:54;5.33;;;2.03;;
66559;SDS011;53413;49.878;8.142;2022-10-16T04:08:20;4.47;;;1.90;;
66559;SDS011;53413;49.878;8.142;2022-10-16T04:10:45;4.88;;;1.67;;
66559;SDS011;53413;49.878;8.142;2022-10-16T04:13:11;4.73;;;2.20;;
66559;SDS011;53413;49.878;8.142;2022-10-16T04:15:37;6.10;;;2.40;;
66559;SDS011;53413;49.878;8.142;2022-10-16T04:18:02;6.33;;;2.60;;
66559;SDS011;53413;49.878;8.142;2022-10-16T04:20:28;5.13;;;2.40;;
66559;SDS011;53413;49.878;8.142;2022-10-16T04:22:53;4.97;;;2.50;;
66559;SDS011;53413;49.878;8.142;2022-10-16T04:25:18;5.10;;;2.37;;
66559;SDS011;53413;49.878;8.142;2022-10-16T04:27:44;5.03;;;2.30;;
66559;SDS011;53413;49.878;8.142;2022-10-16T04:30:09;5.30;;;2.20;;
66559;SDS011;53413;49.878;8.142;2022-10-16T04:32:35;4.97;;;2.00;;
66559;SDS011;53413;49.878;8.142;2022-10-16T04:35:00;4.23;;;1.93;;
66559;SDS011;53413;49.878;8.142;2022-10-16T04:37:26;4.50;;;2.03;;
66559;SDS011;53413;49.878;8.142;2022-10-16T04:39:52;5.40;;;2.20;;
66559;SDS011;53413;49.878;8.142;2022-10-16T04:42:19;4.85;;;2.08;;
66559;SDS011;53413;49.878;8.142;2022-10-16T04:44:44;4.40;;;1.90;;
66559;SDS011;53413;49.878;8.142;2022-10-16T04:47:10;4.75;;;1.80;;
66559;SDS011;53413;49.878;8.142;2022-10-16T04:49:36;5.70;;;2.30;;
66559;SDS011;53413;49.878;8.142;2022-10-16T04:52:01;5.63;;;2.20;;
66559;SDS011;53413;49.878;8.142;2022-10-16T04:54:26;4.32;;;2.10;;
66559;SDS011;53413;49.878;8.142;2022-10-16T04:56:52;6.27;;;2.17;;
66559;SDS011;53413;49.878;8.142;2022-10-16T04:59:18;4.27;;;1.87;;
66559;SDS011;53413;49.878;8.142;2022-10-16T05:01:44;5.22;;;1.80;;
66559;SDS011;53413;49.878;8.142;2022-10-16T05:04:10;3.40;;;1.60;;
66559;SDS011;53413;49.878;8.142;2022-10-16T05:06:36;5.30;;;2.22;;
66559;SDS011;53413;49.878;8.142;2022-10-16T05:09:03;4.93;;;2.10;;
66559;SDS011;53413;49.878;8.142;2022-10-16T05:11:29;5.88;;;2.10;;
66559;SDS011;53413;49.878;8.142;2022-10-16T05:13:54;4.63;;;1.80;;
66559;SDS011;53413;49.878;8.142;2022-10-16T05:16:20;5.67;;;2.07;;
66559;SDS011;53413;49.878;8.142;2022-10-16T05:18:45;5.73;;;2.20;;
66559;SDS011;53413;49.878;8.142;2022-10-16T05:21:11;4.80;;;2.13;;
66559;SDS011;53413;49.878;8.142;2022-10-16T05:23:36;4.07;;;1.80;;
66559;SDS011;53413;49.878;8.142;2022-10-16T05:26:01;5.07;;;2.00;;
66559;SDS011;53413;49.878;8.142;2022-10-16T05:28:27;4.45;;;1.80;;
66559;SDS011;53413;49.878;8.142;2022-10-16T05:30:54;4.20;;;2.10;;
66559;SDS011;53413;49.878;8.142;2022-10-16T05:33:20;4.88;;;2.20;;
66559;SDS011;53413;49.878;8.142;2022-10-16T05:35:48;7.05;;;2.22;;
66559;SDS011;53413;49.878;8.142;2022-10-16T05:38:14;4.97;;;1.90;;
66559;SDS011;53413;49.878;8.142;2022-10-16T05:40:40;8.10;;;2.30;;
66559;SDS011;53413;49.878;8.142;2022-10-16T05:43:05;7.03;;;2.10;;
66559;SDS011;53413;49.878;8.142;2022-10-16T05:45:31;4.70;;;2.10;;
66559;SDS011;53413;49.878;8.142;2022-10-16T05:47:56;5.07;;;1.90;;
66559;SDS011;53413;49.878;8.142;2022-10-16T05:50:21;4.90;;;2.00;;
66559;SDS011;53413;49.878;8.142;2022-10-16T05:52:47;4.72;;;1.90;;
66559;SDS011;53413;49.878;8.142;2022-10-16T05:55:12;4.30;;;1.83;;
66559;SDS011;53413;49.878;8.142;2022-10-16T05:57:37;5.13;;;2.00;;
66559;SDS011;53413;49.878;8.142;2022-10-16T06:00:03;4.80;;;1.90;;
66559;SDS011;53413;49.878;8.142;2022-10-16T06:02:29;4.13;;;1.90;;
66559;SDS011;53413;49.878;8.142;2022-10-16T06:04:55;5.70;;;2.00;;
66559;SDS011;53413;49.878;8.142;2022-10-16T06:07:20;4.83;;;1.93;;
66559;SDS011;53413;49.878;8.142;2022-10-16T06:09:53;4.70;;;2.15;;
66559;SDS011;53413;49.878;8.142;2022-10-16T06:12:18;5.85;;;2.28;;
66559;SDS011;53413;49.878;8.142;2022-10-16T06:14:45;4.93;;;2.40;;
66559;SDS011;53413;49.878;8.142;2022-10-16T06:17:12;9.07;;;5.10;;
66559;SDS011;53413;49.878;8.142;2022-10-16T06:19:38;7.50;;;4.40;;
66559;SDS011;53413;49.878;8.142;2022-10-16T06:22:04;7.65;;;4.10;;
66559;SDS011;53413;49.878;8.142;2022-10-16T06:24:29;6.83;;;3.37;;
66559;SDS011;53413;49.878;8.142;2022-10-16T06:26:54;4.93;;;2.70;;
66559;SDS011;53413;49.878;8.142;2022-10-16T06:29:20;6.80;;;3.27;;
66559;SDS011;53413;49.878;8.142;2022-10-16T06:31:45;7.43;;;3.50;;
66559;SDS011;53413;49.878;8.142;2022-10-16T06:34:10;6.83;;;3.63;;
66559;SDS011;53413;49.878;8.142;2022-10-16T06:36:37;6.07;;;3.67;;
66559;SDS011;53413;49.878;8.142;2022-10-16T06:39:03;5.78;;;3.53;;
66559;SDS011;53413;49.878;8.142;2022-10-16T06:41:30;6.07;;;3.63;;
66559;SDS011;53413;49.878;8.142;2022-10-16T06:43:55;6.68;;;3.60;;
66559;SDS011;53413;49.878;8.142;2022-10-16T06:46:22;5.73;;;3.20;;
66559;SDS011;53413;49.878;8.142;2022-10-16T06:48:49;7.93;;;3.58;;
66559;SDS011;53413;49.878;8.142;2022-10-16T06:51:18;7.07;;;3.33;;
66559;SDS011;53413;49.878;8.142;2022-10-16T06:53:46;6.50;;;3.22;;
66559;SDS011;53413;49.878;8.142;2022-10-16T06:56:18;5.90;;;3.30;;
66559;SDS011;53413;49.878;8.142;2022-10-16T06:58:46;8.43;;;3.10;;
66559;SDS011;53413;49.878;8.142;2022-10-16T07:01:12;6.35;;;3.50;;
66559;SDS011;53413;49.878;8.142;2022-10-16T07:03:39;7.43;;;3.30;;
66559;SDS011;53413;49.878;8.142;2022-10-16T07:06:06;5.88;;;3.25;;
66559;SDS011;53413;49.878;8.142;2022-10-16T07:08:33;7.30;;;3.60;;
66559;SDS011;53413;49.878;8.142;2022-10-16T07:11:00;7.38;;;3.88;;
66559;SDS011;53413;49.878;8.142;2022-10-16T07:13:26;6.75;;;3.70;;
66559;SDS011;53413;49.878;8.142;2022-10-16T07:15:52;6.80;;;3.80;;
66559;SDS011;53413;49.878;8.142;2022-10-16T07:18:17;6.87;;;3.53;;
66559;SDS011;53413;49.878;8.142;2022-10-16T07:20:43;10.77;;;4.70;;
66559;SDS011;53413;49.878;8.142;2022-10-16T07:23:08;8.87;;;5.37;;
66559;SDS011;53413;49.878;8.142;2022-10-16T07:25:34;8.50;;;5.60;;
66559;SDS011;53413;49.878;8.142;2022-10-16T07:27:59;11.07;;;5.70;;
66559;SDS011;53413;49.878;8.142;2022-10-16T07:30:24;10.53;;;6.27;;
66559;SDS011;53413;49.878;8.142;2022-10-16T07:32:50;10.25;;;5.70;;
66559;SDS011;53413;49.878;8.142;2022-10-16T07:35:15;12.13;;;7.20;;
66559;SDS011;53413;49.878;8.142;2022-10-16T07:37:43;12.10;;;6.87;;
66559;SDS011;53413;49.878;8.142;2022-10-16T07:40:10;12.15;;;8.18;;
66559;SDS011;53413;49.878;8.142;2022-10-16T07:42:36;11.82;;;6.95;;
66559;SDS011;53413;49.878;8.142;2022-10-16T07:45:01;10.17;;;6.60;;
66559;SDS011;53413;49.878;8.142;2022-10-16T07:47:27;11.37;;;6.30;;
66559;SDS011;53413;49.878;8.142;2022-10-16T07:49:52;10.05;;;5.90;;
66559;SDS011;53413;49.878;8.142;2022-10-16T07:52:19;9.53;;;5.50;;
66559;SDS011;53413;49.878;8.142;2022-10-16T07:54:44;8.75;;;5.53;;
66559;SDS011;53413;49.878;8.142;2022-10-16T07:57:10;8.27;;;4.30;;
66559;SDS011;53413;49.878;8.142;2022-10-16T07:59:35;7.80;;;3.70;;
66559;SDS011;53413;49.878;8.142;2022-10-16T08:02:00;8.47;;;4.10;;
66559;SDS011;53413;49.878;8.142;2022-10-16T08:04:26;8.77;;;4.70;;
66559;SDS011;53413;49.878;8.142;2022-10-16T08:06:51;8.30;;;3.80;;
66559;SDS011;53413;49.878;8.142;2022-10-16T08:09:16;5.67;;;3.00;;
66559;SDS011;53413;49.878;8.142;2022-10-16T08:11:42;5.87;;;2.70;;
66559;SDS011;53413;49.878;8.142;2022-10-16T08:14:07;4.68;;;2.45;;
66559;SDS011;53413;49.878;8.142;2022-10-16T08:16:32;5.28;;;2.40;;
66559;SDS011;53413;49.878;8.142;2022-10-16T08:18:58;5.10;;;2.20;;
66559;SDS011;53413;49.878;8.142;2022-10-16T08:21:23;4.70;;;2.23;;
66559;SDS011;53413;49.878;8.142;2022-10-16T08:23:49;7.17;;;2.60;;
66559;SDS011;53413;49.878;8.142;2022-10-16T08:26:15;4.72;;;2.50;;
66559;SDS011;53413;49.878;8.142;2022-10-16T08:28:41;4.27;;;2.20;;
66559;SDS011;53413;49.878;8.142;2022-10-16T08:33:32;5.88;;;2.40;;
66559;SDS011;53413;49.878;8.142;2022-10-16T08:35:59;5.97;;;2.00;;
66559;SDS011;53413;49.878;8.142;2022-10-16T08:38:25;4.93;;;2.50;;
66559;SDS011;53413;49.878;8.142;2022-10-16T08:40:50;5.30;;;2.43;;
66559;SDS011;53413;49.878;8.142;2022-10-16T08:46:15;4.88;;;2.00;;
66559;SDS011;53413;49.878;8.142;2022-10-16T08:48:56;4.47;;;1.85;;
66559;SDS011;53413;49.878;8.142;2022-10-16T08:51:25;4.27;;;1.70;;
66559;SDS011;53413;49.878;8.142;2022-10-16T08:53:58;4.45;;;2.10;;
66559;SDS011;53413;49.878;8.142;2022-10-16T08:56:26;4.28;;;1.67;;
66559;SDS011;53413;49.878;8.142;2022-10-16T08:58:53;4.35;;;1.75;;
66559;SDS011;53413;49.878;8.142;2022-10-16T09:01:20;4.20;;;1.60;;
66559;SDS011;53413;49.878;8.142;2022-10-16T09:10:06;4.95;;;1.58;;
66559;SDS011;53413;49.878;8.142;2022-10-16T09:12:39;4.63;;;1.80;;
66559;SDS011;53413;49.878;8.142;2022-10-16T09:18:02;5.07;;;2.40;;
66559;SDS011;53413;49.878;8.142;2022-10-16T09:20:45;5.32;;;2.53;;
66559;SDS011;53413;49.878;8.142;2022-10-16T09:23:29;4.18;;;2.17;;
66559;SDS011;53413;49.878;8.142;2022-10-16T09:25:56;4.20;;;2.10;;
66559;SDS011;53413;49.878;8.142;2022-10-16T09:28:23;3.95;;;1.90;;
66559;SDS011;53413;49.878;8.142;2022-10-16T09:30:49;4.30;;;1.50;;
66559;SDS011;53413;49.878;8.142;2022-10-16T09:33:15;4.17;;;1.53;;
66559;SDS011;53413;49.878;8.142;2022-10-16T09:35:45;3.90;;;1.63;;
66559;SDS011;53413;49.878;8.142;2022-10-16T09:38:21;3.20;;;1.40;;
66559;SDS011;53413;49.878;8.142;2022-10-16T09:40:50;4.00;;;1.30;;
66559;SDS011;53413;49.878;8.142;2022-10-16T09:48:21;3.97;;;1.58;;
66559;SDS011;53413;49.878;8.142;2022-10-16T09:50:56;4.45;;;1.70;;
66559;SDS011;53413;49.878;8.142;2022-10-16T09:53:23;4.07;;;1.52;;
66559;SDS011;53413;49.878;8.142;2022-10-16T09:56:01;3.85;;;1.65;;
66559;SDS011;53413;49.878;8.142;2022-10-16T09:58:28;3.40;;;1.67;;
66559;SDS011;53413;49.878;8.142;2022-10-16T10:00:54;3.43;;;1.40;;
66559;SDS011;53413;49.878;8.142;2022-10-16T10:03:55;3.83;;;1.65;;
66559;SDS011;53413;49.878;8.142;2022-10-16T10:06:25;4.57;;;1.65;;
66559;SDS011;53413;49.878;8.142;2022-10-16T10:11:43;3.58;;;1.55;;
66559;SDS011;53413;49.878;8.142;2022-10-16T10:14:17;3.47;;;1.60;;
66559;SDS011;53413;49.878;8.142;2022-10-16T10:17:02;3.55;;;1.50;;
66559;SDS011;53413;49.878;8.142;2022-10-16T10:19:46;3.55;;;1.50;;
66559;SDS011;53413;49.878;8.142;2022-10-16T10:22:21;4.27;;;1.90;;
66559;SDS011;53413;49.878;8.142;2022-10-16T10:43:57;3.65;;;1.63;;
66559;SDS011;53413;49.878;8.142;2022-10-16T10:55:15;4.43;;;1.67;;
66559;SDS011;53413;49.878;8.142;2022-10-16T11:00:30;3.95;;;1.70;;
66559;SDS011;53413;49.878;8.142;2022-10-16T11:03:27;4.37;;;1.90;;
66559;SDS011;53413;49.878;8.142;2022-10-16T11:06:06;4.40;;;1.52;;
66559;SDS011;53413;49.878;8.142;2022-10-16T11:09:23;3.38;;;1.48;;
66559;SDS011;53413;49.878;8.142;2022-10-16T11:14:22;4.35;;;1.75;;
66559;SDS011;53413;49.878;8.142;2022-10-16T11:16:52;4.33;;;1.70;;
66559;SDS011;53413;49.878;8.142;2022-10-16T11:19:37;4.55;;;1.60;;
66559;SDS011;53413;49.878;8.142;2022-10-16T11:30:14;5.10;;;1.50;;
66559;SDS011;53413;49.878;8.142;2022-10-16T11:40:43;4.40;;;1.80;;
66559;SDS011;53413;49.878;8.142;2022-10-16T11:45:54;4.15;;;1.70;;
66559;SDS011;53413;49.878;8.142;2022-10-16T11:48:27;8.52;;;2.40;;
66559;SDS011;53413;49.878;8.142;2022-10-16T11:51:07;6.13;;;2.15;;
66559;SDS011;53413;49.878;8.142;2022-10-16T11:56:11;4.55;;;1.77;;
66559;SDS011;53413;49.878;8.142;2022-10-16T11:58:45;6.45;;;2.10;;
66559;SDS011;53413;49.878;8.142;2022-10-16T12:03:46;5.65;;;2.50;;
66559;SDS011;53413;49.878;8.142;2022-10-16T12:06:30;6.32;;;2.42;;
66559;SDS011;53413;49.878;8.142;2022-10-16T12:08:58;4.38;;;1.90;;
66559;SDS011;53413;49.878;8.142;2022-10-16T12:16:37;4.32;;;1.95;;
66559;SDS011;53413;49.878;8.142;2022-10-16T12:19:16;5.68;;;3.30;;
66559;SDS011;53413;49.878;8.142;2022-10-16T12:21:43;4.63;;;1.85;;
66559;SDS011;53413;49.878;8.142;2022-10-16T12:26:56;4.15;;;1.60;;
66559;SDS011;53413;49.878;8.142;2022-10-16T12:31:57;5.72;;;1.70;;
66559;SDS011;53413;49.878;8.142;2022-10-16T12:36:54;4.60;;;1.80;;
66559;SDS011;53413;49.878;8.142;2022-10-16T12:39:32;5.20;;;1.80;;
66559;SDS011;53413;49.878;8.142;2022-10-16T12:42:04;3.57;;;1.70;;
66559;SDS011;53413;49.878;8.142;2022-10-16T12:44:32;4.05;;;2.00;;
66559;SDS011;53413;49.878;8.142;2022-10-16T12:46:59;4.57;;;2.10;;
66559;SDS011;53413;49.878;8.142;2022-10-16T12:51:54;5.00;;;2.60;;
66559;SDS011;53413;49.878;8.142;2022-10-16T13:02:28;4.35;;;2.60;;
66559;SDS011;53413;49.878;8.142;2022-10-16T13:10:55;5.38;;;2.53;;
66559;SDS011;53413;49.878;8.142;2022-10-16T13:16:03;6.13;;;3.13;;
66559;SDS011;53413;49.878;8.142;2022-10-16T13:27:07;4.90;;;2.70;;
66559;SDS011;53413;49.878;8.142;2022-10-16T13:29:40;5.30;;;2.70;;
66559;SDS011;53413;49.878;8.142;2022-10-16T13:32:07;4.25;;;2.58;;
66559;SDS011;53413;49.878;8.142;2022-10-16T13:34:47;5.45;;;2.70;;
66559;SDS011;53413;49.878;8.142;2022-10-16T13:37:21;5.60;;;2.40;;
66559;SDS011;53413;49.878;8.142;2022-10-16T13:39:47;6.20;;;2.90;;
66559;SDS011;53413;49.878;8.142;2022-10-16T13:42:19;4.80;;;2.70;;
66559;SDS011;53413;49.878;8.142;2022-10-16T13:44:52;7.35;;;3.50;;
66559;SDS011;53413;49.878;8.142;2022-10-16T13:49:44;9.82;;;6.15;;
66559;SDS011;53413;49.878;8.142;2022-10-16T13:52:17;5.60;;;2.97;;
66559;SDS011;53413;49.878;8.142;2022-10-16T13:54:44;12.90;;;9.00;;
66559;SDS011;53413;49.878;8.142;2022-10-16T13:57:15;12.37;;;7.07;;
66559;SDS011;53413;49.878;8.142;2022-10-16T13:59:42;8.38;;;5.43;;
66559;SDS011;53413;49.878;8.142;2022-10-16T14:02:31;8.82;;;3.80;;
66559;SDS011;53413;49.878;8.142;2022-10-16T14:04:53;5.82;;;3.65;;
66559;SDS011;53413;49.878;8.142;2022-10-16T14:07:28;7.43;;;3.28;;
66559;SDS011;53413;49.878;8.142;2022-10-16T14:09:56;4.82;;;3.10;;
66559;SDS011;53413;49.878;8.142;2022-10-16T14:12:26;6.22;;;2.60;;
66559;SDS011;53413;49.878;8.142;2022-10-16T14:14:52;5.70;;;2.90;;
66559;SDS011;53413;49.878;8.142;2022-10-16T14:17:27;4.57;;;2.70;;
66559;SDS011;53413;49.878;8.142;2022-10-16T14:19:56;6.03;;;3.40;;
66559;SDS011;53413;49.878;8.142;2022-10-16T14:22:34;5.63;;;2.80;;
66559;SDS011;53413;49.878;8.142;2022-10-16T14:27:56;6.15;;;2.60;;
66559;SDS011;53413;49.878;8.142;2022-10-16T14:30:24;6.18;;;2.70;;
66559;SDS011;53413;49.878;8.142;2022-10-16T14:32:56;5.33;;;2.67;;
66559;SDS011;53413;49.878;8.142;2022-10-16T14:35:37;5.30;;;2.70;;
66559;SDS011;53413;49.878;8.142;2022-10-16T14:38:05;4.90;;;2.78;;
66559;SDS011;53413;49.878;8.142;2022-10-16T14:40:45;6.60;;;3.80;;
66559;SDS011;53413;49.878;8.142;2022-10-16T14:43:20;7.80;;;4.10;;
66559;SDS011;53413;49.878;8.142;2022-10-16T14:45:51;6.83;;;3.73;;
66559;SDS011;53413;49.878;8.142;2022-10-16T14:48:19;7.22;;;3.03;;
66559;SDS011;53413;49.878;8.142;2022-10-16T14:50:45;7.38;;;3.90;;
66559;SDS011;53413;49.878;8.142;2022-10-16T14:53:11;7.03;;;3.83;;
66559;SDS011;53413;49.878;8.142;2022-10-16T14:55:38;8.47;;;3.57;;
66559;SDS011;53413;49.878;8.142;2022-10-16T14:58:04;8.20;;;4.10;;
66559;SDS011;53413;49.878;8.142;2022-10-16T15:00:29;6.80;;;3.83;;
66559;SDS011;53413;49.878;8.142;2022-10-16T15:02:55;7.73;;;3.70;;
66559;SDS011;53413;49.878;8.142;2022-10-16T15:05:22;8.17;;;4.00;;
66559;SDS011;53413;49.878;8.142;2022-10-16T15:07:50;6.80;;;3.80;;
66559;SDS011;53413;49.878;8.142;2022-10-16T15:10:18;7.22;;;3.45;;
66559;SDS011;53413;49.878;8.142;2022-10-16T15:12:45;8.05;;;4.30;;
66559;SDS011;53413;49.878;8.142;2022-10-16T15:17:36;7.67;;;3.90;;
66559;SDS011;53413;49.878;8.142;2022-10-16T15:20:02;6.10;;;3.97;;
66559;SDS011;53413;49.878;8.142;2022-10-16T15:22:27;7.15;;;4.28;;
66559;SDS011;53413;49.878;8.142;2022-10-16T15:24:53;6.83;;;4.10;;
66559;SDS011;53413;49.878;8.142;2022-10-16T15:27:18;8.40;;;4.00;;
66559;SDS011;53413;49.878;8.142;2022-10-16T15:29:43;7.80;;;4.20;;
66559;SDS011;53413;49.878;8.142;2022-10-16T15:32:10;7.17;;;3.90;;
66559;SDS011;53413;49.878;8.142;2022-10-16T15:34:35;6.30;;;3.88;;
66559;SDS011;53413;49.878;8.142;2022-10-16T15:37:02;7.43;;;3.93;;
66559;SDS011;53413;49.878;8.142;2022-10-16T15:39:28;8.75;;;4.13;;
66559;SDS011;53413;49.878;8.142;2022-10-16T15:41:54;7.00;;;4.00;;
66559;SDS011;53413;49.878;8.142;2022-10-16T15:44:19;9.57;;;4.10;;
66559;SDS011;53413;49.878;8.142;2022-10-16T15:46:47;8.18;;;4.10;;
66559;SDS011;53413;49.878;8.142;2022-10-16T15:49:13;8.37;;;4.40;;
66559;SDS011;53413;49.878;8.142;2022-10-16T15:51:39;7.90;;;4.30;;
66559;SDS011;53413;49.878;8.142;2022-10-16T15:54:06;8.93;;;4.50;;
66559;SDS011;53413;49.878;8.142;2022-10-16T15:56:32;9.55;;;5.05;;
66559;SDS011;53413;49.878;8.142;2022-10-16T15:58:58;12.00;;;5.55;;
66559;SDS011;53413;49.878;8.142;2022-10-16T16:01:24;9.02;;;4.82;;
66559;SDS011;53413;49.878;8.142;2022-10-16T16:03:52;8.33;;;4.60;;
66559;SDS011;53413;49.878;8.142;2022-10-16T16:06:18;8.20;;;4.50;;
66559;SDS011;53413;49.878;8.142;2022-10-16T16:08:44;7.80;;;4.37;;
66559;SDS011;53413;49.878;8.142;2022-10-16T16:11:10;8.60;;;5.33;;
66559;SDS011;53413;49.878;8.142;2022-10-16T16:13:39;11.27;;;5.40;;
66559;SDS011;53413;49.878;8.142;2022-10-16T16:16:08;11.50;;;6.93;;
66559;SDS011;53413;49.878;8.142;2022-10-16T16:18:36;12.13;;;6.88;;
66559;SDS011;53413;49.878;8.142;2022-10-16T16:21:01;13.93;;;7.33;;
66559;SDS011;53413;49.878;8.142;2022-10-16T16:23:27;11.57;;;6.80;;
66559;SDS011;53413;49.878;8.142;2022-10-16T16:28:39;10.00;;;5.50;;
66559;SDS011;53413;49.878;8.142;2022-10-16T16:31:06;8.50;;;5.38;;
66559;SDS011;53413;49.878;8.142;2022-10-16T16:33:31;10.38;;;5.57;;
66559;SDS011;53413;49.878;8.142;2022-10-16T16:36:01;10.20;;;6.07;;
66559;SDS011;53413;49.878;8.142;2022-10-16T16:38:28;9.38;;;5.75;;
66559;SDS011;53413;49.878;8.142;2022-10-16T16:40:54;9.13;;;5.60;;
66559;SDS011;53413;49.878;8.142;2022-10-16T16:43:26;9.65;;;5.70;;
66559;SDS011;53413;49.878;8.142;2022-10-16T16:45:52;10.27;;;5.93;;
66559;SDS011;53413;49.878;8.142;2022-10-16T16:48:18;10.38;;;5.90;;
66559;SDS011;53413;49.878;8.142;2022-10-16T16:50:43;12.90;;;6.40;;
66559;SDS011;53413;49.878;8.142;2022-10-16T16:53:09;12.00;;;6.77;;
66559;SDS011;53413;49.878;8.142;2022-10-16T16:55:34;12.73;;;7.17;;
66559;SDS011;53413;49.878;8.142;2022-10-16T16:57:59;13.37;;;9.13;;
66559;SDS011;53413;49.878;8.142;2022-10-16T17:00:25;14.75;;;8.30;;
66559;SDS011;53413;49.878;8.142;2022-10-16T17:02:50;12.32;;;8.15;;
66559;SDS011;53413;49.878;8.142;2022-10-16T17:05:16;17.77;;;9.10;;
66559;SDS011;53413;49.878;8.142;2022-10-16T17:07:42;15.38;;;9.40;;
66559;SDS011;53413;49.878;8.142;2022-10-16T17:10:08;18.53;;;10.33;;
66559;SDS011;53413;49.878;8.142;2022-10-16T17:12:34;15.25;;;9.75;;
66559;SDS011;53413;49.878;8.142;2022-10-16T17:15:00;16.57;;;10.20;;
66559;SDS011;53413;49.878;8.142;2022-10-16T17:17:26;16.67;;;9.23;;